Time;durP1;ratioP1;P1;durP2;ratioP2;P2;SDS_P1;SDS_P2;PMS_P1;PMS_P2;Temp;Humidity;BMP_temperature;BMP_pressure;BME280_temperature;BME280_humidity;BME280_pressure;Samples;Min_cycle;Max_cycle;Signal;HPM_P1;HPM_P2
2024/03/23 00:00:15;;;;;;;20.23;4.78;;;;;;;;;;2058377;28;20237;-54
2024/03/23 00:01:18;;;;;;;17.48;3.75;;;;;;;;;;2058281;28;20053;-54
2024/03/23 00:02:20;;;;;;;16.90;4.63;;;;;;;;;;2056154;28;20039;-53
2024/03/23 00:03:22;;;;;;;19.67;4.93;;;;;;;;;;2059191;28;20516;-54
2024/03/23 00:04:24;;;;;;;19.15;4.38;;;;;;;;;;2064468;28;20500;-53
2024/03/23 00:05:26;;;;;;;17.48;4.03;;;;;;;;;;2057901;28;20042;-52
2024/03/23 00:06:28;;;;;;;21.02;4.50;;;;;;;;;;2063191;28;20034;-47
2024/03/23 00:07:31;;;;;;;18.80;3.97;;;;;;;;;;2061395;28;20023;-46
2024/03/23 00:08:32;;;;;;;21.67;4.75;;;;;;;;;;2061468;28;20022;-48
2024/03/23 00:09:34;;;;;;;14.20;3.65;;;;;;;;;;2063791;28;20023;-49
2024/03/23 00:10:36;;;;;;;19.17;4.35;;;;;;;;;;2060816;28;20092;-47
2024/03/23 00:11:38;;;;;;;19.25;4.18;;;;;;;;;;2063630;28;20027;-48
2024/03/23 00:12:40;;;;;;;21.52;4.03;;;;;;;;;;2062113;28;20083;-46
2024/03/23 00:13:42;;;;;;;20.60;3.90;;;;;;;;;;2056394;28;20014;-47
2024/03/23 00:14:43;;;;;;;20.02;4.07;;;;;;;;;;2059126;28;20035;-47
2024/03/23 00:15:45;;;;;;;20.42;4.97;;;;;;;;;;2062820;28;20019;-49
2024/03/23 00:16:47;;;;;;;15.55;3.90;;;;;;;;;;2064082;28;20026;-48
2024/03/23 00:17:49;;;;;;;19.38;4.22;;;;;;;;;;2065933;28;20103;-48
2024/03/23 00:18:51;;;;;;;25.42;4.72;;;;;;;;;;2059790;28;20030;-53
2024/03/23 00:19:52;;;;;;;23.40;4.78;;;;;;;;;;2057952;28;20498;-54
2024/03/23 00:20:54;;;;;;;16.85;3.83;;;;;;;;;;2059739;28;20613;-51
2024/03/23 00:21:56;;;;;;;16.48;3.95;;;;;;;;;;2057429;28;20107;-52
2024/03/23 00:22:58;;;;;;;20.58;4.57;;;;;;;;;;2058103;28;20069;-51
2024/03/23 00:23:59;;;;;;;20.80;5.10;;;;;;;;;;2059742;28;20069;-51
2024/03/23 00:25:01;;;;;;;32.33;4.78;;;;;;;;;;2057863;28;20494;-51
2024/03/23 00:26:03;;;;;;;18.17;4.45;;;;;;;;;;2060158;28;20023;-52
2024/03/23 00:27:05;;;;;;;22.88;4.55;;;;;;;;;;2057803;28;20065;-48
2024/03/23 00:28:10;;;;;;;19.45;4.82;;;;;;;;;;2058237;28;20504;-48
2024/03/23 00:29:11;;;;;;;16.63;4.00;;;;;;;;;;2057215;28;20102;-49
2024/03/23 00:30:13;;;;;;;23.60;5.00;;;;;;;;;;2062540;28;20544;-49
2024/03/23 00:31:15;;;;;;;19.77;4.68;;;;;;;;;;2061204;28;20038;-49
2024/03/23 00:32:17;;;;;;;26.40;4.35;;;;;;;;;;2062879;28;20053;-48
2024/03/23 00:33:19;;;;;;;20.33;4.25;;;;;;;;;;2065832;28;20461;-48
2024/03/23 00:34:20;;;;;;;25.33;5.30;;;;;;;;;;2063659;28;20018;-48
2024/03/23 00:35:22;;;;;;;16.10;4.22;;;;;;;;;;2057128;28;20050;-49
2024/03/23 00:36:24;;;;;;;14.45;4.05;;;;;;;;;;2062598;28;20105;-48
2024/03/23 00:37:26;;;;;;;19.60;4.53;;;;;;;;;;2065017;28;20053;-47
2024/03/23 00:38:28;;;;;;;23.52;4.75;;;;;;;;;;2061589;28;20086;-47
2024/03/23 00:39:29;;;;;;;19.15;4.32;;;;;;;;;;2065454;28;20389;-48
2024/03/23 00:40:32;;;;;;;16.35;4.50;;;;;;;;;;2062687;28;20011;-49
2024/03/23 00:41:33;;;;;;;21.20;4.10;;;;;;;;;;2059943;28;20027;-49
2024/03/23 00:42:35;;;;;;;20.35;4.32;;;;;;;;;;2063011;28;20023;-47
2024/03/23 00:43:37;;;;;;;18.13;3.90;;;;;;;;;;2061638;28;20509;-49
2024/03/23 00:44:39;;;;;;;17.27;3.80;;;;;;;;;;2062803;28;20045;-48
2024/03/23 00:45:40;;;;;;;22.65;4.50;;;;;;;;;;2062295;28;20097;-48
2024/03/23 00:46:42;;;;;;;20.17;5.47;;;;;;;;;;2055195;28;20029;-48
2024/03/23 00:47:44;;;;;;;17.05;4.05;;;;;;;;;;2056940;28;20363;-49
2024/03/23 00:48:46;;;;;;;25.10;4.68;;;;;;;;;;2064875;28;20062;-48
2024/03/23 00:49:48;;;;;;;19.67;4.22;;;;;;;;;;2065527;28;20011;-48
2024/03/23 00:50:49;;;;;;;26.40;4.65;;;;;;;;;;2060543;28;20532;-49
2024/03/23 00:51:51;;;;;;;21.95;4.80;;;;;;;;;;2060682;28;20035;-48
2024/03/23 00:52:53;;;;;;;25.17;4.57;;;;;;;;;;2062559;28;20532;-46
2024/03/23 00:53:54;;;;;;;17.38;3.97;;;;;;;;;;2061242;28;20022;-48
2024/03/23 00:54:55;;;;;;;21.08;5.07;;;;;;;;;;2062677;28;20019;-48
2024/03/23 00:55:57;;;;;;;17.73;4.15;;;;;;;;;;2058349;28;20062;-48
2024/03/23 00:56:58;;;;;;;27.05;5.05;;;;;;;;;;2065299;28;20022;-48
2024/03/23 00:57:59;;;;;;;26.27;3.92;;;;;;;;;;2058290;28;20011;-48
2024/03/23 00:59:01;;;;;;;19.52;4.32;;;;;;;;;;2064360;28;20022;-48
2024/03/23 01:00:02;;;;;;;20.48;4.47;;;;;;;;;;2063841;28;20033;-48
2024/03/23 01:01:04;;;;;;;24.13;3.97;;;;;;;;;;2062928;28;20088;-47
2024/03/23 01:02:05;;;;;;;17.05;3.83;;;;;;;;;;2058873;28;20581;-47
2024/03/23 01:03:06;;;;;;;21.98;5.20;;;;;;;;;;2064199;28;20497;-48
2024/03/23 01:04:07;;;;;;;19.50;4.13;;;;;;;;;;2065010;28;20047;-54
2024/03/23 01:05:09;;;;;;;26.42;4.20;;;;;;;;;;2061802;28;20101;-54
2024/03/23 01:06:10;;;;;;;20.90;5.43;;;;;;;;;;2059608;28;20474;-53
2024/03/23 01:07:11;;;;;;;17.20;4.10;;;;;;;;;;2060151;28;20066;-54
2024/03/23 01:08:13;;;;;;;25.17;4.97;;;;;;;;;;2057393;28;20030;-54
2024/03/23 01:09:14;;;;;;;14.40;3.88;;;;;;;;;;2059693;28;20030;-52
2024/03/23 01:10:16;;;;;;;22.73;5.00;;;;;;;;;;2059387;28;20030;-54
2024/03/23 01:11:17;;;;;;;20.67;4.13;;;;;;;;;;2061808;28;20040;-55
2024/03/23 01:12:18;;;;;;;21.05;4.35;;;;;;;;;;2060437;28;20080;-51
2024/03/23 01:13:22;;;;;;;18.63;4.45;;;;;;;;;;2065229;28;20022;-52
2024/03/23 01:14:23;;;;;;;22.08;4.15;;;;;;;;;;2061638;28;20073;-55
2024/03/23 01:15:24;;;;;;;30.80;4.90;;;;;;;;;;2064418;28;20037;-52
2024/03/23 01:16:26;;;;;;;16.80;3.55;;;;;;;;;;2061499;28;20011;-52
2024/03/23 01:17:27;;;;;;;20.60;3.83;;;;;;;;;;2058886;28;20535;-49
2024/03/23 01:18:29;;;;;;;18.70;4.55;;;;;;;;;;2061186;28;20049;-51
2024/03/23 01:19:30;;;;;;;22.30;5.35;;;;;;;;;;2063111;28;20022;-52
2024/03/23 01:20:31;;;;;;;26.35;4.55;;;;;;;;;;2062409;28;20014;-54
2024/03/23 01:21:33;;;;;;;31.58;4.55;;;;;;;;;;2062605;28;20031;-51
2024/03/23 01:22:34;;;;;;;19.50;4.03;;;;;;;;;;2061269;28;20465;-54
2024/03/23 01:23:35;;;;;;;22.15;4.45;;;;;;;;;;2062898;28;20022;-48
2024/03/23 01:24:37;;;;;;;18.20;4.43;;;;;;;;;;2058292;28;20019;-47
2024/03/23 01:25:38;;;;;;;21.02;4.90;;;;;;;;;;2056800;28;20051;-48
2024/03/23 01:26:40;;;;;;;20.17;4.35;;;;;;;;;;2059230;28;20030;-47
2024/03/23 01:27:41;;;;;;;16.92;4.20;;;;;;;;;;2048678;28;20035;-48
2024/03/23 01:28:42;;;;;;;21.13;3.60;;;;;;;;;;2062931;28;20026;-47
2024/03/23 01:29:44;;;;;;;23.70;4.68;;;;;;;;;;2064865;28;20101;-49
2024/03/23 01:30:45;;;;;;;22.27;4.07;;;;;;;;;;2064724;28;20014;-49
2024/03/23 01:31:46;;;;;;;19.40;4.57;;;;;;;;;;2065461;28;20030;-48
2024/03/23 01:32:48;;;;;;;20.00;4.10;;;;;;;;;;2065301;28;20014;-48
2024/03/23 01:33:49;;;;;;;20.83;4.65;;;;;;;;;;2057814;28;20027;-48
2024/03/23 01:34:50;;;;;;;22.80;4.57;;;;;;;;;;2060408;28;20023;-47
2024/03/23 01:35:52;;;;;;;18.30;3.97;;;;;;;;;;2056877;28;20007;-52
2024/03/23 01:36:53;;;;;;;29.13;5.13;;;;;;;;;;2065009;28;20421;-53
2024/03/23 01:37:54;;;;;;;17.92;4.03;;;;;;;;;;2063589;28;20122;-53
2024/03/23 01:38:55;;;;;;;20.80;3.95;;;;;;;;;;2065310;28;20027;-53
2024/03/23 01:39:57;;;;;;;18.63;4.15;;;;;;;;;;2062091;28;20026;-51
2024/03/23 01:40:58;;;;;;;18.35;3.95;;;;;;;;;;2065359;28;20022;-49
2024/03/23 01:42:00;;;;;;;23.00;4.03;;;;;;;;;;2065097;28;20109;-53
2024/03/23 01:43:05;;;;;;;21.52;4.82;;;;;;;;;;2064448;28;20490;-51
2024/03/23 01:44:07;;;;;;;14.23;4.47;;;;;;;;;;2064620;28;20021;-51
2024/03/23 01:45:10;;;;;;;16.35;3.97;;;;;;;;;;2065323;28;20026;-49
2024/03/23 01:46:11;;;;;;;18.70;3.97;;;;;;;;;;2064607;28;20101;-52
2024/03/23 01:47:12;;;;;;;22.27;4.63;;;;;;;;;;2063818;28;20019;-53
2024/03/23 01:48:14;;;;;;;16.88;4.22;;;;;;;;;;2064486;28;20043;-51
2024/03/23 01:49:15;;;;;;;18.70;4.00;;;;;;;;;;2056066;28;20517;-52
2024/03/23 01:50:16;;;;;;;16.60;4.47;;;;;;;;;;2059417;28;20029;-53
2024/03/23 01:51:18;;;;;;;18.33;4.00;;;;;;;;;;2056580;28;20026;-53
2024/03/23 01:52:19;;;;;;;21.13;3.85;;;;;;;;;;2059949;28;20034;-51
2024/03/23 01:53:22;;;;;;;19.73;4.45;;;;;;;;;;2064732;28;20509;-51
2024/03/23 01:54:25;;;;;;;25.20;4.53;;;;;;;;;;2064753;28;20022;-52
2024/03/23 01:55:27;;;;;;;16.58;4.00;;;;;;;;;;2065219;28;20405;-53
2024/03/23 01:56:28;;;;;;;18.40;4.22;;;;;;;;;;2064765;28;20395;-52
2024/03/23 01:57:30;;;;;;;27.20;4.60;;;;;;;;;;2062605;28;20050;-47
2024/03/23 01:58:31;;;;;;;17.95;4.18;;;;;;;;;;2061170;28;20032;-50
2024/03/23 01:59:33;;;;;;;16.48;3.75;;;;;;;;;;2063757;28;20022;-51
2024/03/23 02:00:36;;;;;;;18.08;3.95;;;;;;;;;;2061734;28;20425;-51
2024/03/23 02:01:38;;;;;;;21.42;4.07;;;;;;;;;;2064404;28;20026;-52
2024/03/23 02:02:45;;;;;;;17.70;4.55;;;;;;;;;;2064942;28;20562;-51
2024/03/23 02:03:47;;;;;;;20.52;4.03;;;;;;;;;;2065003;28;20023;-51
2024/03/23 02:04:48;;;;;;;17.70;4.10;;;;;;;;;;2064956;28;20054;-48
2024/03/23 02:05:49;;;;;;;19.05;4.38;;;;;;;;;;2057032;28;20113;-48
2024/03/23 02:06:50;;;;;;;23.88;4.95;;;;;;;;;;2064379;28;20504;-49
2024/03/23 02:07:52;;;;;;;20.20;4.32;;;;;;;;;;2065036;28;20029;-48
2024/03/23 02:08:54;;;;;;;26.42;5.05;;;;;;;;;;2064164;28;20026;-47
2024/03/23 02:09:55;;;;;;;23.70;4.47;;;;;;;;;;2064049;28;20034;-47
2024/03/23 02:10:58;;;;;;;22.45;4.53;;;;;;;;;;2064513;28;20161;-47
2024/03/23 02:11:59;;;;;;;16.80;4.10;;;;;;;;;;2064414;28;20034;-48
2024/03/23 02:13:02;;;;;;;21.30;4.43;;;;;;;;;;2065035;28;20081;-47
2024/03/23 02:14:03;;;;;;;22.50;4.40;;;;;;;;;;2062105;28;20489;-47
2024/03/23 02:15:05;;;;;;;15.98;3.95;;;;;;;;;;2061004;28;20430;-47
2024/03/23 02:16:08;;;;;;;22.48;5.13;;;;;;;;;;2058604;28;20053;-47
2024/03/23 02:17:10;;;;;;;21.10;4.38;;;;;;;;;;2059047;28;20027;-47
2024/03/23 02:18:11;;;;;;;22.80;4.07;;;;;;;;;;2059070;28;20466;-47
2024/03/23 02:19:12;;;;;;;20.45;4.00;;;;;;;;;;2064907;28;20038;-48
2024/03/23 02:20:14;;;;;;;23.83;4.65;;;;;;;;;;2064857;28;20421;-47
2024/03/23 02:21:16;;;;;;;22.83;4.35;;;;;;;;;;2064901;28;20478;-47
2024/03/23 02:22:17;;;;;;;25.48;4.53;;;;;;;;;;2064871;28;20496;-47
2024/03/23 02:23:19;;;;;;;27.90;5.00;;;;;;;;;;2064362;28;20521;-48
2024/03/23 02:24:20;;;;;;;19.02;4.35;;;;;;;;;;2062154;28;20046;-48
2024/03/23 02:25:22;;;;;;;26.45;4.65;;;;;;;;;;2057657;28;20023;-47
2024/03/23 02:26:24;;;;;;;17.25;3.97;;;;;;;;;;2060773;28;20101;-49
2024/03/23 02:27:25;;;;;;;19.27;4.13;;;;;;;;;;2064775;28;20168;-49
2024/03/23 02:28:28;;;;;;;18.65;4.68;;;;;;;;;;2062555;28;20026;-49
2024/03/23 02:29:29;;;;;;;15.77;4.53;;;;;;;;;;2063777;28;20097;-49
2024/03/23 02:30:30;;;;;;;23.73;4.28;;;;;;;;;;2064282;28;20033;-49
2024/03/23 02:31:33;;;;;;;22.27;4.75;;;;;;;;;;2064868;28;20359;-48
2024/03/23 02:32:34;;;;;;;19.73;3.83;;;;;;;;;;2063727;28;20026;-48
2024/03/23 02:33:37;;;;;;;19.25;4.30;;;;;;;;;;2059322;28;20063;-48
2024/03/23 02:34:39;;;;;;;24.38;4.40;;;;;;;;;;2062450;28;20022;-48
2024/03/23 02:35:40;;;;;;;20.00;4.57;;;;;;;;;;2057625;28;20094;-48
2024/03/23 02:36:41;;;;;;;22.55;3.80;;;;;;;;;;2063090;28;20034;-48
2024/03/23 02:37:43;;;;;;;17.70;4.28;;;;;;;;;;2064931;28;20010;-49
2024/03/23 02:38:44;;;;;;;25.80;4.50;;;;;;;;;;2064157;28;20018;-48
2024/03/23 02:39:46;;;;;;;19.02;4.00;;;;;;;;;;2058427;28;20524;-48
2024/03/23 02:40:47;;;;;;;31.77;4.10;;;;;;;;;;2060079;28;20502;-49
2024/03/23 02:41:48;;;;;;;17.40;4.07;;;;;;;;;;2060995;28;20600;-49
2024/03/23 02:42:50;;;;;;;18.85;4.13;;;;;;;;;;2064627;28;20414;-49
2024/03/23 02:43:51;;;;;;;20.85;4.10;;;;;;;;;;2063800;28;20550;-49
2024/03/23 02:44:52;;;;;;;22.95;4.47;;;;;;;;;;2063725;28;20028;-50
2024/03/23 02:45:54;;;;;;;17.75;4.30;;;;;;;;;;2063987;28;20026;-48
2024/03/23 02:46:55;;;;;;;16.35;3.55;;;;;;;;;;2059959;28;20389;-48
2024/03/23 02:47:56;;;;;;;22.77;4.50;;;;;;;;;;2056534;28;20474;-50
2024/03/23 02:48:58;;;;;;;22.23;4.38;;;;;;;;;;2063968;28;20120;-49
2024/03/23 02:49:59;;;;;;;20.65;3.80;;;;;;;;;;2063989;28;20105;-51
2024/03/23 02:51:00;;;;;;;17.15;4.07;;;;;;;;;;2064001;28;20034;-52
2024/03/23 02:52:02;;;;;;;21.08;3.90;;;;;;;;;;2064868;28;20014;-50
2024/03/23 02:53:03;;;;;;;18.33;4.60;;;;;;;;;;2064616;28;20023;-51
2024/03/23 02:54:04;;;;;;;20.92;5.18;;;;;;;;;;2064862;28;20033;-51
2024/03/23 02:55:06;;;;;;;20.05;4.30;;;;;;;;;;2064670;28;20459;-51
2024/03/23 02:56:08;;;;;;;21.40;4.38;;;;;;;;;;2059835;28;20007;-52
2024/03/23 02:57:09;;;;;;;21.60;4.90;;;;;;;;;;2063645;28;20042;-47
2024/03/23 02:58:10;;;;;;;35.17;5.00;;;;;;;;;;2063791;28;20015;-47
2024/03/23 02:59:12;;;;;;;16.98;4.13;;;;;;;;;;2063472;28;20022;-48
2024/03/23 03:00:13;;;;;;;20.25;4.53;;;;;;;;;;2064374;28;20090;-48
2024/03/23 03:01:14;;;;;;;19.05;4.25;;;;;;;;;;2064691;28;20070;-48
2024/03/23 03:02:16;;;;;;;17.75;4.78;;;;;;;;;;2064683;28;20030;-47
2024/03/23 03:03:17;;;;;;;18.35;4.30;;;;;;;;;;2064050;28;20014;-47
2024/03/23 03:04:18;;;;;;;17.77;3.80;;;;;;;;;;2064085;28;20030;-48
2024/03/23 03:05:20;;;;;;;21.60;4.10;;;;;;;;;;2064579;28;20022;-49
2024/03/23 03:06:25;;;;;;;22.38;4.75;;;;;;;;;;2061374;28;20481;-48
2024/03/23 03:07:26;;;;;;;26.15;4.88;;;;;;;;;;2056060;28;20027;-48
2024/03/23 03:08:27;;;;;;;20.27;3.40;;;;;;;;;;2063947;28;20046;-47
2024/03/23 03:09:29;;;;;;;23.60;4.28;;;;;;;;;;2064603;28;20098;-48
2024/03/23 03:10:32;;;;;;;23.27;4.10;;;;;;;;;;2064619;28;20156;-47
2024/03/23 03:11:33;;;;;;;30.70;5.13;;;;;;;;;;2063952;28;20030;-46
2024/03/23 03:12:34;;;;;;;12.68;3.65;;;;;;;;;;2064044;28;20015;-47
2024/03/23 03:13:36;;;;;;;14.98;3.50;;;;;;;;;;2062865;28;20097;-48
2024/03/23 03:14:37;;;;;;;21.60;4.72;;;;;;;;;;2062055;28;20512;-47
2024/03/23 03:15:40;;;;;;;26.50;4.53;;;;;;;;;;2061939;28;20563;-47
2024/03/23 03:16:41;;;;;;;23.58;4.70;;;;;;;;;;2057687;28;20109;-47
2024/03/23 03:17:43;;;;;;;14.13;3.58;;;;;;;;;;2048021;28;20573;-47
2024/03/23 03:18:46;;;;;;;21.65;4.72;;;;;;;;;;2057093;28;20090;-47
2024/03/23 03:19:47;;;;;;;16.83;4.43;;;;;;;;;;2040261;29;20028;-47
2024/03/23 03:20:49;;;;;;;14.48;4.07;;;;;;;;;;2055214;28;20038;-47
2024/03/23 03:21:50;;;;;;;19.90;3.83;;;;;;;;;;2064662;28;20117;-47
2024/03/23 03:22:53;;;;;;;17.98;4.68;;;;;;;;;;2064437;28;20023;-54
2024/03/23 03:23:56;;;;;;;15.23;3.30;;;;;;;;;;2064478;28;20101;-52
2024/03/23 03:24:57;;;;;;;17.98;4.20;;;;;;;;;;2061704;28;20847;-53
2024/03/23 03:25:59;;;;;;;17.98;4.13;;;;;;;;;;2064504;28;20352;-54
2024/03/23 03:27:00;;;;;;;17.13;4.57;;;;;;;;;;2064037;28;20038;-53
2024/03/23 03:28:01;;;;;;;19.58;4.00;;;;;;;;;;2058947;28;20054;-52
2024/03/23 03:29:03;;;;;;;22.92;4.45;;;;;;;;;;2063914;28;20026;-52
2024/03/23 03:30:05;;;;;;;22.52;4.70;;;;;;;;;;2062922;28;20031;-53
2024/03/23 03:31:07;;;;;;;19.88;3.95;;;;;;;;;;2064505;28;20410;-50
2024/03/23 03:32:09;;;;;;;17.50;4.57;;;;;;;;;;2064557;28;20097;-52
2024/03/23 03:33:10;;;;;;;21.05;4.30;;;;;;;;;;2061876;28;20020;-47
2024/03/23 03:34:12;;;;;;;21.92;4.20;;;;;;;;;;2057525;28;20023;-48
2024/03/23 03:35:13;;;;;;;17.48;4.13;;;;;;;;;;2064193;28;20553;-48
2024/03/23 03:36:14;;;;;;;18.95;3.97;;;;;;;;;;2061749;28;20015;-48
2024/03/23 03:37:16;;;;;;;26.60;4.80;;;;;;;;;;2063848;28;20030;-49
2024/03/23 03:38:17;;;;;;;21.02;4.88;;;;;;;;;;2059702;28;20116;-47
2024/03/23 03:39:18;;;;;;;18.15;3.80;;;;;;;;;;2064202;28;20076;-47
2024/03/23 03:40:19;;;;;;;15.90;3.97;;;;;;;;;;2061237;28;20027;-47
2024/03/23 03:41:21;;;;;;;20.02;4.65;;;;;;;;;;2064489;28;20342;-48
2024/03/23 03:42:22;;;;;;;13.55;3.60;;;;;;;;;;2064074;28;20049;-48
2024/03/23 03:43:23;;;;;;;21.02;4.05;;;;;;;;;;2063978;28;20101;-48
2024/03/23 03:44:25;;;;;;;15.77;4.32;;;;;;;;;;2064203;28;20386;-48
2024/03/23 03:45:26;;;;;;;14.52;4.03;;;;;;;;;;2064421;28;20046;-47
2024/03/23 03:46:27;;;;;;;22.27;4.13;;;;;;;;;;2064400;28;20026;-49
2024/03/23 03:47:29;;;;;;;19.52;4.88;;;;;;;;;;2064031;28;20031;-48
2024/03/23 03:48:30;;;;;;;19.67;3.92;;;;;;;;;;2064393;28;20015;-48
2024/03/23 03:49:31;;;;;;;24.63;4.40;;;;;;;;;;2063804;28;20021;-48
2024/03/23 03:50:33;;;;;;;18.40;4.25;;;;;;;;;;2063864;28;20019;-47
2024/03/23 03:51:34;;;;;;;21.30;4.30;;;;;;;;;;2065696;28;20361;-47
2024/03/23 03:52:36;;;;;;;19.13;3.70;;;;;;;;;;2066409;28;20068;-47
2024/03/23 03:53:37;;;;;;;19.20;5.63;;;;;;;;;;2065983;28;20029;-48
2024/03/23 03:54:38;;;;;;;22.40;4.57;;;;;;;;;;2066224;28;20023;-48
2024/03/23 03:55:40;;;;;;;20.63;3.90;;;;;;;;;;2066086;28;20471;-47
2024/03/23 03:56:41;;;;;;;19.88;3.22;;;;;;;;;;2065301;28;20053;-47
2024/03/23 03:57:42;;;;;;;18.15;4.28;;;;;;;;;;2065931;28;20034;-47
2024/03/23 03:58:44;;;;;;;19.27;3.75;;;;;;;;;;2065868;28;20081;-47
2024/03/23 03:59:45;;;;;;;20.42;3.80;;;;;;;;;;2065959;28;20023;-47
2024/03/23 04:00:46;;;;;;;17.75;4.40;;;;;;;;;;2065115;28;20095;-47
2024/03/23 04:01:48;;;;;;;22.20;4.53;;;;;;;;;;2065071;28;20014;-47
2024/03/23 04:02:49;;;;;;;17.67;3.65;;;;;;;;;;2066214;28;20035;-48
2024/03/23 04:03:50;;;;;;;21.90;4.88;;;;;;;;;;2066133;28;20030;-47
2024/03/23 04:04:52;;;;;;;25.83;4.15;;;;;;;;;;2065776;28;20097;-47
2024/03/23 04:05:54;;;;;;;17.10;4.57;;;;;;;;;;2065311;28;20045;-48
2024/03/23 04:06:59;;;;;;;15.00;3.80;;;;;;;;;;2063878;28;20026;-48
2024/03/23 04:08:00;;;;;;;27.13;4.45;;;;;;;;;;2065821;28;20029;-48
2024/03/23 04:09:02;;;;;;;20.20;3.78;;;;;;;;;;2066023;28;20117;-48
2024/03/23 04:10:07;;;;;;;19.02;4.30;;;;;;;;;;2066243;28;20022;-47
2024/03/23 04:11:08;;;;;;;14.30;3.65;;;;;;;;;;2066023;28;20026;-47
2024/03/23 04:12:10;;;;;;;18.25;3.95;;;;;;;;;;2066198;28;20138;-47
2024/03/23 04:13:11;;;;;;;22.60;4.82;;;;;;;;;;2065131;28;20027;-48
2024/03/23 04:14:12;;;;;;;17.27;4.20;;;;;;;;;;2065215;28;20426;-47
2024/03/23 04:15:14;;;;;;;19.23;4.10;;;;;;;;;;2057726;28;20039;-47
2024/03/23 04:16:25;;;;;;;22.42;4.85;;;;;;;;;;2060631;28;20388;-49
2024/03/23 04:17:31;;;;;;;21.17;4.47;;;;;;;;;;2057233;28;20019;-48
2024/03/23 04:18:33;;;;;;;18.92;3.95;;;;;;;;;;2062603;28;20130;-48
2024/03/23 04:19:34;;;;;;;19.45;3.63;;;;;;;;;;2066047;28;20026;-47
2024/03/23 04:20:35;;;;;;;22.45;3.50;;;;;;;;;;2065948;28;20414;-48
2024/03/23 04:21:38;;;;;;;16.38;4.32;;;;;;;;;;2066116;28;20025;-48
2024/03/23 04:22:39;;;;;;;20.27;3.75;;;;;;;;;;2065834;28;20026;-47
2024/03/23 04:23:40;;;;;;;22.25;4.50;;;;;;;;;;2066293;28;20359;-47
2024/03/23 04:24:42;;;;;;;27.08;4.78;;;;;;;;;;2063880;28;20025;-47
2024/03/23 04:25:43;;;;;;;18.25;4.03;;;;;;;;;;2058082;28;20026;-48
2024/03/23 04:26:45;;;;;;;22.17;4.45;;;;;;;;;;2064620;28;20030;-48
2024/03/23 04:27:47;;;;;;;27.98;5.70;;;;;;;;;;2066085;28;20469;-46
2024/03/23 04:28:48;;;;;;;21.25;4.35;;;;;;;;;;2065689;28;20025;-48
2024/03/23 04:29:50;;;;;;;18.50;5.15;;;;;;;;;;2061668;28;20025;-49
2024/03/23 04:30:51;;;;;;;15.30;4.13;;;;;;;;;;2065598;28;20030;-47
2024/03/23 04:31:52;;;;;;;20.63;4.60;;;;;;;;;;2065883;28;20109;-47
2024/03/23 04:32:54;;;;;;;21.02;4.82;;;;;;;;;;2065941;28;20019;-47
2024/03/23 04:33:55;;;;;;;18.40;3.92;;;;;;;;;;2065980;28;20093;-48
2024/03/23 04:34:56;;;;;;;24.00;4.57;;;;;;;;;;2065729;28;20077;-48
2024/03/23 04:35:58;;;;;;;19.08;3.85;;;;;;;;;;2065178;28;20014;-47
2024/03/23 04:37:00;;;;;;;30.35;5.88;;;;;;;;;;2066010;28;20473;-48
2024/03/23 04:38:02;;;;;;;17.63;4.28;;;;;;;;;;2065947;28;20615;-48
2024/03/23 04:39:03;;;;;;;19.02;4.85;;;;;;;;;;2065598;28;20019;-47
2024/03/23 04:40:05;;;;;;;20.42;4.15;;;;;;;;;;2065345;28;20019;-48
2024/03/23 04:41:06;;;;;;;19.08;3.97;;;;;;;;;;2059886;28;20041;-47
2024/03/23 04:42:08;;;;;;;23.02;4.40;;;;;;;;;;2059575;28;20026;-48
2024/03/23 04:43:10;;;;;;;22.77;3.83;;;;;;;;;;2065614;28;20428;-48
2024/03/23 04:44:11;;;;;;;21.83;5.10;;;;;;;;;;2065816;28;20377;-48
2024/03/23 04:45:13;;;;;;;23.05;4.32;;;;;;;;;;2064904;28;20129;-48
2024/03/23 04:46:15;;;;;;;23.08;5.07;;;;;;;;;;2064612;28;20989;-51
2024/03/23 04:47:16;;;;;;;19.83;4.10;;;;;;;;;;2065054;28;20065;-51
2024/03/23 04:48:20;;;;;;;23.17;4.30;;;;;;;;;;2065278;28;20058;-51
2024/03/23 04:49:21;;;;;;;15.55;3.42;;;;;;;;;;2065927;28;20031;-50
2024/03/23 04:50:22;;;;;;;16.58;3.70;;;;;;;;;;2065046;28;20026;-49
2024/03/23 04:51:24;;;;;;;22.30;4.32;;;;;;;;;;2065292;28;20015;-50
2024/03/23 04:52:26;;;;;;;21.65;4.10;;;;;;;;;;2065166;28;20027;-51
2024/03/23 04:53:30;;;;;;;20.30;4.05;;;;;;;;;;2065066;28;20077;-50
2024/03/23 04:54:34;;;;;;;19.42;4.15;;;;;;;;;;2065509;28;20026;-51
2024/03/23 04:55:35;;;;;;;22.45;4.55;;;;;;;;;;2065063;28;20028;-51
2024/03/23 04:56:37;;;;;;;14.77;4.20;;;;;;;;;;2064681;28;20493;-50
2024/03/23 04:57:39;;;;;;;19.42;4.80;;;;;;;;;;2065628;28;20097;-52
2024/03/23 04:58:40;;;;;;;19.33;3.92;;;;;;;;;;2065651;28;20105;-51
2024/03/23 04:59:41;;;;;;;21.42;4.43;;;;;;;;;;2065471;28;20061;-48
2024/03/23 05:00:42;;;;;;;21.50;4.05;;;;;;;;;;2065416;28;20018;-46
2024/03/23 05:01:44;;;;;;;18.75;4.20;;;;;;;;;;2065735;28;20038;-47
2024/03/23 05:02:45;;;;;;;23.10;4.43;;;;;;;;;;2064532;28;20385;-47
2024/03/23 05:03:49;;;;;;;18.02;4.25;;;;;;;;;;2065211;28;20112;-49
2024/03/23 05:04:50;;;;;;;15.18;3.80;;;;;;;;;;2064036;28;20032;-49
2024/03/23 05:05:52;;;;;;;22.60;4.60;;;;;;;;;;2064251;28;20034;-48
2024/03/23 05:06:53;;;;;;;17.15;4.45;;;;;;;;;;2065367;28;20446;-46
2024/03/23 05:07:54;;;;;;;19.92;4.55;;;;;;;;;;2063002;28;20227;-50
2024/03/23 05:08:56;;;;;;;21.67;4.32;;;;;;;;;;2064700;28;20114;-49
2024/03/23 05:09:57;;;;;;;24.40;4.70;;;;;;;;;;2064880;28;20045;-48
2024/03/23 05:10:58;;;;;;;21.83;4.18;;;;;;;;;;2065396;28;20025;-48
2024/03/23 05:12:00;;;;;;;17.23;4.38;;;;;;;;;;2065355;28;20033;-48
2024/03/23 05:13:01;;;;;;;18.42;4.28;;;;;;;;;;2057002;28;20027;-48
2024/03/23 05:14:03;;;;;;;16.52;4.30;;;;;;;;;;2058010;28;20011;-48
2024/03/23 05:15:10;;;;;;;20.55;4.93;;;;;;;;;;2061403;28;20277;-49
2024/03/23 05:16:11;;;;;;;27.83;5.28;;;;;;;;;;2059700;28;20401;-48
2024/03/23 05:17:12;;;;;;;17.83;4.85;;;;;;;;;;2063494;28;20081;-48
2024/03/23 05:18:14;;;;;;;20.75;5.18;;;;;;;;;;2064293;28;20192;-47
2024/03/23 05:19:16;;;;;;;17.92;4.05;;;;;;;;;;2065024;28;20101;-47
2024/03/23 05:20:18;;;;;;;20.60;4.20;;;;;;;;;;2064605;28;20045;-47
2024/03/23 05:21:19;;;;;;;18.73;3.83;;;;;;;;;;2064815;28;20394;-46
2024/03/23 05:22:20;;;;;;;16.65;4.35;;;;;;;;;;2062077;28;20061;-46
2024/03/23 05:23:22;;;;;;;23.27;3.85;;;;;;;;;;2056807;28;20469;-47
2024/03/23 05:24:23;;;;;;;20.40;4.45;;;;;;;;;;2060458;28;20023;-47
2024/03/23 05:25:24;;;;;;;28.40;3.90;;;;;;;;;;2064856;28;20030;-47
2024/03/23 05:26:26;;;;;;;17.55;4.13;;;;;;;;;;2062955;28;20045;-47
2024/03/23 05:27:27;;;;;;;19.65;3.83;;;;;;;;;;2062236;28;20438;-48
2024/03/23 05:28:29;;;;;;;19.20;3.67;;;;;;;;;;2061272;28;20125;-47
2024/03/23 05:29:30;;;;;;;25.00;4.25;;;;;;;;;;2061418;28;20011;-48
2024/03/23 05:30:31;;;;;;;23.58;4.13;;;;;;;;;;2061696;28;20029;-47
2024/03/23 05:31:33;;;;;;;20.98;4.40;;;;;;;;;;2064477;28;20102;-47
2024/03/23 05:32:34;;;;;;;19.42;4.00;;;;;;;;;;2061718;28;20018;-47
2024/03/23 05:33:38;;;;;;;24.90;3.83;;;;;;;;;;2064456;28;20029;-48
2024/03/23 05:34:39;;;;;;;17.52;3.45;;;;;;;;;;2064643;28;20085;-48
2024/03/23 05:35:41;;;;;;;29.50;4.60;;;;;;;;;;2064537;28;20049;-47
2024/03/23 05:36:42;;;;;;;26.33;3.92;;;;;;;;;;2056006;28;20023;-48
2024/03/23 05:37:44;;;;;;;21.13;3.95;;;;;;;;;;2062262;28;20525;-48
2024/03/23 05:38:45;;;;;;;18.40;4.28;;;;;;;;;;2063948;28;20019;-47
2024/03/23 05:39:49;;;;;;;20.88;4.43;;;;;;;;;;2057707;28;20030;-48
2024/03/23 05:40:54;;;;;;;21.48;3.50;;;;;;;;;;2064738;28;20050;-49
2024/03/23 05:41:56;;;;;;;19.73;4.30;;;;;;;;;;2060000;28;20023;-48
2024/03/23 05:42:57;;;;;;;19.33;4.47;;;;;;;;;;2065403;28;20477;-47
2024/03/23 05:43:58;;;;;;;20.08;4.30;;;;;;;;;;2059489;28;20106;-48
2024/03/23 05:45:00;;;;;;;20.73;4.00;;;;;;;;;;2065213;28;20077;-48
2024/03/23 05:46:01;;;;;;;26.45;3.50;;;;;;;;;;2064918;28;20022;-49
2024/03/23 05:47:03;;;;;;;18.02;4.63;;;;;;;;;;2064730;28;20030;-49
2024/03/23 05:48:04;;;;;;;14.98;4.03;;;;;;;;;;2064865;28;20019;-48
2024/03/23 05:49:06;;;;;;;15.38;4.05;;;;;;;;;;2064312;28;20045;-48
2024/03/23 05:50:09;;;;;;;19.67;4.18;;;;;;;;;;2057519;28;20362;-47
2024/03/23 05:51:12;;;;;;;20.50;3.95;;;;;;;;;;2065331;28;20088;-50
2024/03/23 05:52:14;;;;;;;16.15;3.72;;;;;;;;;;2065372;28;20022;-48
2024/03/23 05:53:15;;;;;;;18.13;3.95;;;;;;;;;;2064365;28;20013;-48
2024/03/23 05:54:17;;;;;;;20.00;4.05;;;;;;;;;;2056939;28;20561;-49
2024/03/23 05:55:18;;;;;;;19.23;3.08;;;;;;;;;;2063618;28;20453;-49
2024/03/23 05:56:20;;;;;;;18.23;4.07;;;;;;;;;;2060543;28;20081;-47
2024/03/23 05:57:22;;;;;;;23.95;4.43;;;;;;;;;;2065288;28;20379;-48
2024/03/23 05:58:23;;;;;;;18.95;4.65;;;;;;;;;;2065314;28;20077;-49
2024/03/23 05:59:24;;;;;;;17.95;4.57;;;;;;;;;;2065286;28;20144;-49
2024/03/23 06:00:26;;;;;;;18.50;3.67;;;;;;;;;;2065236;28;20030;-48
2024/03/23 06:01:28;;;;;;;21.92;4.57;;;;;;;;;;2065183;28;21043;-47
2024/03/23 06:02:29;;;;;;;18.15;4.25;;;;;;;;;;2061890;28;20098;-47
2024/03/23 06:03:31;;;;;;;20.63;4.00;;;;;;;;;;2064285;28;20014;-48
2024/03/23 06:04:32;;;;;;;21.60;4.50;;;;;;;;;;2064914;28;20496;-49